Time;durP1;ratioP1;P1;durP2;ratioP2;P2;SDS_P1;SDS_P2;PMS_P1;PMS_P2;Temp;Humidity;BMP_temperature;BMP_pressure;BME280_temperature;BME280_humidity;BME280_pressure;Samples;Min_cycle;Max_cycle;Signal;HPM_P1;HPM_P2
2022/07/07 00:02:52;;;;;;;3.10;1.00;;;15.30;1.40;;;16.50;100.00;95953.24;646294;216;32270;-76
2022/07/07 00:05:33;;;;;;;1.10;1.00;;;15.30;1.40;;;16.44;100.00;95949.24;646878;212;31575;-76
2022/07/07 00:08:21;;;;;;;2.20;1.30;;;15.30;1.40;;;16.48;100.00;95944.02;646523;216;31525;-76
2022/07/07 00:11:09;;;;;;;0.80;0.80;;;15.30;1.40;;;16.44;100.00;95946.66;642523;216;31618;-76
2022/07/07 00:13:51;;;;;;;2.12;1.15;;;15.20;1.40;;;16.41;100.00;95941.31;646862;212;31507;-76
2022/07/07 00:16:32;;;;;;;1.50;1.10;;;15.20;1.40;;;16.28;100.00;95946.92;647533;216;31692;-76
2022/07/07 00:19:14;;;;;;;1.20;0.88;;;15.10;1.40;;;16.15;100.00;95950.56;647605;216;31539;-76
2022/07/07 00:21:56;;;;;;;3.55;1.30;;;15.00;1.40;;;16.02;100.00;95948.56;647276;216;31684;-76
2022/07/07 00:24:38;;;;;;;4.47;1.10;;;14.80;1.40;;;15.90;100.00;95947.36;646455;216;31532;-76
2022/07/07 00:27:19;;;;;;;1.40;1.30;;;14.80;1.40;;;15.99;100.00;95944.61;647568;216;31524;-76
2022/07/07 00:30:01;;;;;;;1.45;1.10;;;14.90;1.40;;;15.97;100.00;95944.55;620139;226;31860;-76
2022/07/07 00:32:43;;;;;;;1.50;1.40;;;14.80;1.40;;;15.99;100.00;95942.48;646740;216;31529;-77
2022/07/07 00:35:58;;;;;;;1.10;0.88;;;14.80;1.40;;;15.93;100.00;95943.52;647195;212;31567;-75
2022/07/07 00:38:40;;;;;;;1.50;1.40;;;14.90;1.40;;;15.88;100.00;95944.94;632048;221;32253;-76
2022/07/07 00:41:27;;;;;;;1.20;1.00;;;14.90;1.40;;;15.79;100.00;95944.49;647170;216;31519;-77
2022/07/07 00:44:15;;;;;;;1.48;1.25;;;14.80;1.40;;;15.91;100.00;95940.23;647514;216;31561;-76
2022/07/07 00:46:57;;;;;;;1.75;0.98;;;14.80;1.40;;;15.92;100.00;95941.45;647777;212;31525;-76
2022/07/07 00:49:40;;;;;;;3.28;1.20;;;14.80;1.40;;;15.88;100.00;95938.25;646778;212;31485;-76
2022/07/07 00:52:34;;;;;;;1.50;1.00;;;14.80;1.40;;;15.82;100.00;95939.98;647446;214;31548;-76
2022/07/07 00:55:22;;;;;;;1.67;1.30;;;14.70;1.40;;;15.81;100.00;95935.00;646342;216;31601;-75
2022/07/07 00:58:10;;;;;;;1.30;0.90;;;14.60;1.40;;;15.73;100.00;95935.06;647039;212;31547;-76
2022/07/07 01:00:57;;;;;;;1.50;1.02;;;14.50;1.40;;;15.71;100.00;95934.59;646250;216;31539;-76
2022/07/07 01:03:39;;;;;;;4.12;1.40;;;14.60;1.40;;;15.71;100.00;95940.34;646193;212;31509;-76
2022/07/07 01:06:27;;;;;;;1.30;1.15;;;14.60;1.40;;;15.68;100.00;95938.30;647262;212;31509;-76
2022/07/07 01:09:09;;;;;;;1.60;1.50;;;14.60;1.40;;;15.63;100.00;95938.69;619483;226;32126;-76
2022/07/07 01:11:54;;;;;;;1.55;1.10;;;14.50;1.40;;;15.56;100.00;95933.08;647209;212;31515;-76
2022/07/07 01:14:43;;;;;;;1.52;1.10;;;14.50;1.40;;;15.61;100.00;95932.50;646413;216;31559;-76
2022/07/07 01:17:31;;;;;;;1.48;1.20;;;14.50;1.40;;;15.59;100.00;95931.69;647203;216;31830;-76
2022/07/07 01:20:14;;;;;;;1.37;1.27;;;14.50;1.40;;;15.66;100.00;95935.49;646461;212;31539;-76
2022/07/07 01:22:55;;;;;;;3.17;1.30;;;14.50;1.40;;;15.59;100.00;95934.38;647805;212;31505;-76
2022/07/07 01:25:43;;;;;;;1.50;1.20;;;14.50;1.40;;;15.61;100.00;95932.83;646105;212;31548;-76
2022/07/07 01:28:31;;;;;;;1.65;1.00;;;14.50;1.40;;;15.61;100.00;95937.80;647087;216;31491;-76
2022/07/07 01:31:14;;;;;;;2.20;1.30;;;14.50;1.40;;;15.67;100.00;95934.86;619315;226;32157;-75
2022/07/07 01:35:51;;;;;;;2.05;1.15;;;14.70;1.40;;;15.57;100.00;95927.97;647009;212;31532;-76
2022/07/07 01:38:33;;;;;;;1.62;1.40;;;14.50;1.40;;;15.44;100.00;95924.09;646286;216;31520;-76
2022/07/07 01:41:15;;;;;;;1.80;1.33;;;14.30;1.40;;;15.26;100.00;95923.70;645941;216;31536;-76
2022/07/07 01:43:59;;;;;;;1.12;1.02;;;14.10;1.40;;;15.02;100.00;95922.02;646793;212;32636;-75
2022/07/07 01:46:41;;;;;;;1.15;1.05;;;13.90;1.40;;;14.92;100.00;95921.02;646908;214;31643;-75
2022/07/07 01:49:23;;;;;;;1.65;1.40;;;13.80;1.40;;;15.02;100.00;95920.54;646996;216;31527;-75
2022/07/07 01:52:05;;;;;;;1.40;1.30;;;13.80;1.40;;;14.90;100.00;95920.71;647130;216;31864;-75
2022/07/07 01:54:47;;;;;;;1.50;1.20;;;13.70;1.40;;;14.70;100.00;95916.38;646745;212;31614;-75
2022/07/07 01:57:28;;;;;;;4.00;1.20;;;13.50;1.40;;;14.60;100.00;95919.50;647815;216;31502;-76
2022/07/07 02:00:12;;;;;;;1.20;1.10;;;13.50;1.40;;;14.67;100.00;95920.25;620639;225;32209;-76
2022/07/07 02:02:57;;;;;;;1.40;1.30;;;13.50;1.40;;;14.68;100.00;95919.46;648487;216;31599;-75
2022/07/07 02:08:13;;;;;;;1.10;1.00;;;13.40;1.40;;;14.51;100.00;95923.56;647416;212;31511;-76
2022/07/07 02:13:48;;;;;;;1.10;1.00;;;13.40;1.40;;;14.63;100.00;95922.73;646309;216;32185;-76
2022/07/07 02:16:36;;;;;;;1.65;1.45;;;13.30;1.40;;;14.49;100.00;95921.27;619201;226;42539;-76
2022/07/07 02:19:18;;;;;;;4.60;1.17;;;13.40;1.40;;;14.59;100.00;95923.31;646650;216;31717;-76
2022/07/07 02:22:06;;;;;;;3.30;1.40;;;13.50;1.40;;;14.55;100.00;95920.09;645619;216;42914;-76
2022/07/07 02:24:54;;;;;;;2.20;1.90;;;13.50;1.40;;;14.61;100.00;95919.62;647656;216;31547;-76
2022/07/07 02:27:38;;;;;;;1.00;0.90;;;13.50;1.40;;;14.38;100.00;95919.42;646013;216;32104;-75
2022/07/07 02:30:21;;;;;;;1.73;1.10;;;13.40;1.40;;;14.51;100.00;95916.03;646941;216;31532;-76
2022/07/07 02:35:57;;;;;;;2.10;1.40;;;13.60;1.40;;;14.66;100.00;95918.31;646896;216;31540;-75
2022/07/07 02:38:39;;;;;;;5.65;1.98;;;13.60;1.40;;;14.60;100.00;95915.17;647206;216;42189;-76
2022/07/07 02:41:21;;;;;;;1.30;1.20;;;13.60;1.40;;;14.56;100.00;95911.03;646429;216;42225;-76
2022/07/07 02:44:05;;;;;;;2.15;1.60;;;13.50;1.40;;;14.54;100.00;95907.50;645750;216;31880;-75
2022/07/07 02:46:52;;;;;;;1.48;1.17;;;13.40;1.40;;;14.41;100.00;95905.38;647942;216;31638;-76
2022/07/07 02:49:34;;;;;;;1.35;1.20;;;13.40;1.40;;;14.40;100.00;95910.05;647443;212;31594;-76
2022/07/07 02:52:16;;;;;;;1.35;1.25;;;13.40;1.40;;;14.38;100.00;95912.22;646938;212;31618;-76
2022/07/07 02:54:58;;;;;;;1.50;1.20;;;13.30;1.40;;;14.31;100.00;95911.03;645796;212;42157;-76
2022/07/07 02:57:42;;;;;;;1.23;1.10;;;13.30;1.40;;;14.31;100.00;95911.11;647240;216;31510;-76
2022/07/07 03:03:08;;;;;;;1.50;1.00;;;13.30;1.40;;;14.14;100.00;95904.99;647004;212;31663;-76
2022/07/07 03:05:49;;;;;;;1.87;1.37;;;13.20;1.40;;;14.18;100.00;95909.12;647940;212;31636;-76
2022/07/07 03:08:31;;;;;;;1.45;1.30;;;13.30;1.40;;;14.18;100.00;95904.70;648418;212;31609;-76
2022/07/07 03:11:12;;;;;;;2.20;1.12;;;13.30;1.40;;;14.22;100.00;95903.77;647189;212;31610;-76
2022/07/07 03:13:56;;;;;;;1.50;1.40;;;13.40;1.40;;;14.21;100.00;95902.23;646762;216;42185;-76
2022/07/07 03:16:38;;;;;;;1.20;1.10;;;13.30;1.40;;;14.28;100.00;95895.37;646954;216;42143;-76
2022/07/07 03:19:19;;;;;;;1.65;1.25;;;13.40;1.40;;;14.34;100.00;95894.45;645775;212;31544;-76
2022/07/07 03:22:07;;;;;;;2.50;1.45;;;13.40;1.40;;;14.40;100.00;95893.66;647076;216;31526;-76
2022/07/07 03:24:49;;;;;;;1.30;1.10;;;13.40;1.40;;;14.49;100.00;95890.53;618238;226;32239;-76
2022/07/07 03:27:30;;;;;;;4.00;1.30;;;13.40;1.40;;;14.54;100.00;95888.19;648038;216;32177;-76
2022/07/07 03:30:15;;;;;;;1.10;1.00;;;13.40;1.40;;;14.61;100.00;95888.06;647071;212;31559;-76
2022/07/07 03:32:57;;;;;;;1.80;1.30;;;13.40;1.40;;;14.50;100.00;95893.02;646632;212;42434;-76
2022/07/07 03:35:57;;;;;;;2.47;1.30;;;13.30;1.40;;;14.50;100.00;95889.86;645409;216;31689;-77
2022/07/07 03:38:44;;;;;;;1.70;1.52;;;13.30;1.40;;;14.59;100.00;95885.68;646399;216;31548;-76
2022/07/07 03:41:32;;;;;;;1.70;1.33;;;13.30;1.40;;;14.67;100.00;95882.31;647305;212;31559;-76
2022/07/07 03:44:14;;;;;;;1.70;1.10;;;13.40;1.40;;;14.61;100.00;95878.41;646808;216;31597;-76
2022/07/07 03:46:58;;;;;;;2.78;1.60;;;13.40;1.40;;;14.58;100.00;95882.22;646663;216;42498;-81
2022/07/07 03:49:45;;;;;;;1.60;1.50;;;13.40;1.40;;;14.47;100.00;95881.39;646762;216;31595;-74
2022/07/07 03:52:32;;;;;;;1.30;0.90;;;13.40;1.40;;;14.45;100.00;95881.98;644391;212;31660;-74
2022/07/07 03:57:51;;;;;;;2.30;1.60;;;13.40;1.40;;;14.46;100.00;95888.05;619468;222;31859;-74
2022/07/07 04:00:33;;;;;;;1.75;1.37;;;13.40;1.40;;;14.51;100.00;95889.86;647173;216;31582;-74
2022/07/07 04:03:14;;;;;;;1.85;1.20;;;13.40;1.40;;;14.67;100.00;95886.59;645156;212;32200;-74
2022/07/07 04:05:56;;;;;;;2.42;1.20;;;13.40;1.40;;;14.80;100.00;95890.64;646441;212;32149;-74
2022/07/07 04:08:38;;;;;;;1.80;1.27;;;13.50;1.40;;;14.56;100.00;95890.52;646954;216;32054;-74
2022/07/07 04:11:19;;;;;;;2.08;1.55;;;13.50;1.40;;;14.59;100.00;95897.80;646677;216;31607;-73
2022/07/07 04:14:01;;;;;;;1.30;1.10;;;13.50;1.40;;;14.57;100.00;95894.84;619172;225;31905;-74
2022/07/07 04:16:43;;;;;;;1.25;1.15;;;13.50;1.40;;;14.65;100.00;95889.09;646390;216;31640;-74
2022/07/07 04:19:24;;;;;;;1.50;1.37;;;13.50;1.40;;;14.66;100.00;95889.41;645908;216;31566;-74
2022/07/07 04:22:06;;;;;;;1.65;1.40;;;13.60;1.40;;;14.72;100.00;95886.30;646705;212;31532;-74
2022/07/07 04:24:48;;;;;;;2.10;1.60;;;13.70;1.40;;;14.85;100.00;95884.58;645990;216;31497;-74
2022/07/07 04:27:30;;;;;;;4.00;1.55;;;13.80;1.40;;;14.89;100.00;95888.46;647401;216;31578;-74
2022/07/07 04:30:12;;;;;;;2.20;1.35;;;13.80;1.40;;;14.89;100.00;95894.73;647030;216;31554;-74
2022/07/07 04:32:53;;;;;;;1.77;1.20;;;13.80;1.40;;;14.83;100.00;95890.52;646744;213;31617;-74
2022/07/07 04:35:51;;;;;;;3.12;1.00;;;13.80;1.40;;;14.87;100.00;95882.21;645152;216;31721;-74
2022/07/07 04:38:33;;;;;;;1.60;1.20;;;13.80;1.40;;;15.09;100.00;95880.08;646050;216;31569;-74
2022/07/07 04:41:15;;;;;;;1.73;1.48;;;14.00;1.40;;;15.03;100.00;95880.38;647439;216;31746;-74
2022/07/07 04:43:59;;;;;;;1.40;1.30;;;14.00;1.40;;;15.17;100.00;95878.64;646654;216;31738;-74
2022/07/07 04:46:41;;;;;;;1.37;1.20;;;14.10;1.40;;;15.31;100.00;95876.78;618970;226;31978;-74
2022/07/07 04:49:23;;;;;;;1.60;1.20;;;14.10;1.40;;;15.32;100.00;95874.27;619402;222;32438;-74
2022/07/07 04:52:05;;;;;;;1.60;1.50;;;14.20;1.40;;;15.30;100.00;95872.83;644867;216;32309;-74
2022/07/07 04:54:49;;;;;;;1.40;1.30;;;14.20;1.40;;;15.34;100.00;95870.87;646448;216;31629;-74
2022/07/07 04:57:31;;;;;;;1.77;1.35;;;14.30;1.40;;;15.26;100.00;95872.84;647369;216;31657;-74
2022/07/07 05:00:13;;;;;;;3.35;1.40;;;14.20;1.40;;;15.34;100.00;95876.80;647878;216;31756;-74
2022/07/07 05:02:55;;;;;;;1.85;1.25;;;14.20;1.40;;;15.30;100.00;95875.01;646662;216;31497;-74
2022/07/07 05:05:37;;;;;;;1.40;1.10;;;14.30;1.40;;;15.31;100.00;95870.39;646851;216;31494;-74
2022/07/07 05:08:18;;;;;;;1.40;1.30;;;14.30;1.40;;;15.40;100.00;95868.23;647141;212;31532;-73
2022/07/07 05:11:00;;;;;;;1.70;1.10;;;14.40;1.40;;;15.39;100.00;95875.47;646478;216;31514;-74
2022/07/07 05:13:42;;;;;;;1.70;1.10;;;14.40;1.40;;;15.40;100.00;95881.98;647435;212;31545;-74
2022/07/07 05:16:24;;;;;;;2.55;1.40;;;14.40;1.40;;;15.34;100.00;95880.57;618602;225;32370;-74
2022/07/07 05:19:08;;;;;;;1.50;1.20;;;14.40;1.40;;;15.36;100.00;95881.77;646382;216;42316;-74
2022/07/07 05:21:47;;;;;;;2.00;1.00;;;14.30;1.40;;;15.49;100.00;95886.41;646457;216;31488;-74
2022/07/07 05:24:32;;;;;;;2.20;1.33;;;14.40;1.40;;;15.52;100.00;95886.33;646334;216;31536;-74
2022/07/07 05:27:14;;;;;;;1.90;1.00;;;14.40;1.40;;;15.51;100.00;95884.97;646855;216;31591;-75
2022/07/07 05:30:06;;;;;;;2.20;1.40;;;14.40;1.40;;;15.56;100.00;95884.81;619493;222;32003;-75
2022/07/07 05:32:54;;;;;;;1.77;1.20;;;14.40;1.40;;;15.55;100.00;95890.09;647884;212;31672;-81
2022/07/07 05:35:53;;;;;;;1.42;1.05;;;14.40;1.40;;;15.51;100.00;95894.39;646767;216;31574;-74
2022/07/07 05:38:35;;;;;;;1.50;1.40;;;14.40;1.40;;;15.69;100.00;95897.09;646424;216;31525;-75
2022/07/07 05:41:19;;;;;;;1.12;0.93;;;14.40;1.40;;;15.62;100.00;95894.01;647788;216;31815;-75
2022/07/07 05:44:01;;;;;;;1.10;1.00;;;14.40;1.40;;;15.53;100.00;95890.17;646480;212;31571;-74
2022/07/07 05:46:46;;;;;;;1.17;1.00;;;14.30;1.40;;;15.67;100.00;95889.63;646015;216;31525;-73
2022/07/07 05:49:27;;;;;;;1.25;1.05;;;14.30;1.40;;;15.61;100.00;95886.53;646769;216;31601;-74
2022/07/07 05:52:09;;;;;;;1.40;1.30;;;14.40;1.40;;;15.51;100.00;95886.89;645538;212;31550;-74
2022/07/07 05:54:51;;;;;;;2.70;1.00;;;14.40;1.40;;;15.56;100.00;95891.70;645239;212;31589;-74
2022/07/07 05:57:32;;;;;;;1.90;1.30;;;14.40;1.40;;;15.50;100.00;95888.58;646879;216;31684;-75
2022/07/07 06:00:14;;;;;;;2.33;1.23;;;14.50;1.40;;;15.67;100.00;95885.91;646248;216;31821;-74
2022/07/07 06:03:03;;;;;;;1.70;1.00;;;14.50;1.40;;;15.76;100.00;95881.81;648110;212;31512;-84
2022/07/07 06:05:50;;;;;;;3.60;1.20;;;14.70;1.40;;;15.72;100.00;95878.86;646658;212;31506;-74
2022/07/07 06:08:32;;;;;;;1.52;0.98;;;14.70;1.40;;;15.88;100.00;95879.67;648051;212;31558;-75
2022/07/07 06:11:14;;;;;;;2.37;0.82;;;14.80;1.40;;;15.92;100.00;95881.84;646300;216;31693;-74
2022/07/07 06:13:59;;;;;;;1.15;0.90;;;14.80;1.40;;;16.01;100.00;95879.20;646691;216;31613;-74
2022/07/07 06:16:41;;;;;;;0.85;0.85;;;14.80;1.40;;;16.21;100.00;95877.23;647299;216;31614;-74
2022/07/07 06:19:24;;;;;;;1.15;1.05;;;15.10;1.40;;;16.08;100.00;95878.05;646781;216;31591;-73
2022/07/07 06:22:06;;;;;;;1.20;1.00;;;15.00;1.40;;;16.12;100.00;95875.13;647155;212;31523;-75
2022/07/07 06:24:48;;;;;;;0.98;0.98;;;15.00;1.40;;;16.22;100.00;95878.89;647243;216;31479;-78
2022/07/07 06:27:36;;;;;;;1.50;1.10;;;15.20;1.40;;;16.22;100.00;95878.35;646277;216;31552;-74
2022/07/07 06:32:52;;;;;;;1.40;1.10;;;15.10;1.40;;;16.12;100.00;95888.51;646016;216;31702;-74
2022/07/07 06:35:55;;;;;;;1.33;1.00;;;15.10;1.40;;;16.00;100.00;95887.76;645768;216;31676;-74
2022/07/07 06:38:37;;;;;;;1.30;1.00;;;15.00;1.40;;;16.08;100.00;95888.19;646657;216;31491;-74
2022/07/07 06:41:23;;;;;;;1.42;1.10;;;15.10;1.40;;;16.15;100.00;95887.60;618370;226;32062;-74
2022/07/07 06:44:05;;;;;;;1.08;0.90;;;15.20;1.40;;;16.27;100.00;95890.19;645108;216;32719;-74
2022/07/07 06:46:47;;;;;;;0.93;0.77;;;15.30;1.40;;;16.39;100.00;95891.07;645699;212;31604;-75
2022/07/07 06:49:28;;;;;;;1.87;0.90;;;15.30;1.40;;;16.46;100.00;95893.19;650626;216;31527;-74
2022/07/07 06:52:10;;;;;;;1.12;0.70;;;15.40;1.40;;;16.49;100.00;95888.61;646263;216;31509;-74
2022/07/07 06:54:52;;;;;;;3.00;0.70;;;15.40;1.40;;;16.82;100.00;95885.81;619158;222;31877;-75
2022/07/07 06:57:33;;;;;;;0.82;0.80;;;15.60;1.40;;;16.73;100.00;95886.19;617934;222;31902;-74
2022/07/07 07:00:16;;;;;;;2.13;0.93;;;15.60;1.40;;;16.85;100.00;95891.58;619243;222;31824;-74
2022/07/07 07:02:58;;;;;;;0.70;0.70;;;15.70;1.40;;;16.78;100.00;95886.83;631044;222;31623;-74
2022/07/07 07:05:40;;;;;;;1.33;0.93;;;15.60;1.40;;;16.99;100.00;95887.84;646659;216;31493;-74
2022/07/07 07:09:09;;;;;;;1.90;1.17;;;15.70;1.40;;;16.91;100.00;95886.91;646158;216;31572;-74
2022/07/07 07:11:50;;;;;;;1.52;1.00;;;15.80;1.40;;;16.90;100.00;95880.17;630872;217;32285;-74
2022/07/07 07:14:32;;;;;;;0.90;0.60;;;15.80;1.40;;;16.88;100.00;95880.28;646557;216;31590;-74
2022/07/07 07:17:15;;;;;;;1.98;1.17;;;15.80;1.40;;;16.92;100.00;95881.85;646137;216;31483;-74
2022/07/07 07:19:58;;;;;;;0.80;0.80;;;15.80;1.40;;;16.71;100.00;95882.67;631409;222;31998;-74
2022/07/07 07:22:40;;;;;;;1.00;0.80;;;15.70;1.40;;;16.88;100.00;95885.95;619334;226;32062;-75
2022/07/07 07:25:22;;;;;;;1.60;0.80;;;15.70;1.40;;;16.88;100.00;95887.05;647346;216;31519;-74
2022/07/07 07:28:03;;;;;;;1.20;0.90;;;15.70;1.40;;;16.71;100.00;95882.95;645450;216;31564;-74
2022/07/07 07:30:45;;;;;;;1.00;1.00;;;15.70;1.40;;;16.77;100.00;95879.80;647482;212;31944;-74
2022/07/07 07:35:51;;;;;;;2.78;1.00;;;15.70;1.40;;;16.89;100.00;95881.97;646159;216;43030;-74
2022/07/07 07:38:36;;;;;;;1.20;1.00;;;15.70;1.40;;;16.77;100.00;95887.68;647751;212;31521;-74
2022/07/07 07:41:19;;;;;;;2.20;0.90;;;15.70;1.40;;;16.80;100.00;95880.05;620278;222;31818;-74
2022/07/07 07:43:59;;;;;;;1.20;0.90;;;15.80;1.40;;;16.92;100.00;95879.88;645734;216;31494;-74
2022/07/07 07:46:44;;;;;;;0.90;0.90;;;15.90;1.40;;;17.18;100.00;95880.67;646615;216;31781;-74
2022/07/07 07:49:25;;;;;;;2.28;1.00;;;16.10;1.40;;;17.12;100.00;95883.63;618300;226;31821;-74
2022/07/07 07:52:07;;;;;;;0.98;0.90;;;16.00;1.40;;;17.24;100.00;95877.70;645433;212;31653;-75
2022/07/07 07:54:49;;;;;;;1.20;1.10;;;16.20;1.40;;;17.67;100.00;95873.89;646768;212;31566;-75
2022/07/07 07:57:31;;;;;;;1.67;0.88;;;16.50;1.40;;;18.01;100.00;95877.80;645728;216;31518;-75
2022/07/07 08:00:16;;;;;;;1.35;1.00;;;16.70;1.40;;;18.03;100.00;95877.98;618221;222;32158;-75
2022/07/07 08:03:03;;;;;;;1.15;0.80;;;16.70;1.40;;;18.20;100.00;95885.76;648708;216;31490;-81
2022/07/07 08:05:51;;;;;;;1.95;1.05;;;16.80;1.40;;;18.13;99.41;95880.05;618985;225;32391;-74
2022/07/07 08:08:33;;;;;;;5.30;1.30;;;16.90;1.40;;;18.28;99.12;95878.77;647898;212;31586;-75
2022/07/07 08:11:14;;;;;;;5.68;1.10;;;17.00;1.40;;;18.10;98.45;95876.81;646382;216;31865;-74
2022/07/07 08:13:59;;;;;;;4.20;1.12;;;17.00;1.40;;;18.57;96.03;95878.26;645285;212;31595;-75
2022/07/07 08:16:41;;;;;;;2.10;1.10;;;17.30;1.40;;;18.50;95.27;95877.80;647977;216;31495;-75
2022/07/07 08:19:25;;;;;;;0.80;0.80;;;17.30;1.40;;;18.04;98.04;95880.13;645732;216;31534;-74
2022/07/07 08:22:12;;;;;;;1.00;0.90;;;17.00;1.40;;;18.34;97.90;95874.74;647346;216;31492;-74
2022/07/07 08:24:57;;;;;;;1.50;1.10;;;17.80;1.40;;;19.28;93.38;95870.72;647013;216;31598;-74
2022/07/07 08:27:38;;;;;;;1.70;0.88;;;18.20;1.40;;;19.34;88.37;95869.87;646281;216;31589;-74
2022/07/07 08:30:20;;;;;;;3.12;1.37;;;18.20;1.40;;;19.23;89.18;95869.63;646331;212;31544;-74
2022/07/07 08:35:51;;;;;;;1.30;1.20;;;18.00;1.40;;;19.70;88.94;95870.68;646783;212;31708;-75
2022/07/07 08:38:33;;;;;;;1.42;1.02;;;18.50;1.40;;;19.83;83.90;95868.39;631899;221;31646;-75
2022/07/07 08:41:15;;;;;;;2.30;1.10;;;18.80;1.40;;;20.01;84.99;95862.88;647525;212;31872;-75
2022/07/07 08:43:56;;;;;;;2.20;0.80;;;19.00;1.40;;;20.09;82.41;95866.69;645803;216;32439;-75
2022/07/07 08:46:38;;;;;;;1.90;0.70;;;18.70;1.40;;;19.77;84.28;95867.14;646939;212;31561;-74
2022/07/07 08:49:19;;;;;;;1.70;0.90;;;18.60;1.40;;;19.68;80.34;95869.64;647028;216;31522;-75
2022/07/07 08:52:01;;;;;;;0.93;0.80;;;18.40;1.40;;;20.22;81.71;95866.38;645545;216;31476;-75
2022/07/07 08:54:46;;;;;;;2.33;0.90;;;18.90;1.40;;;20.57;77.66;95860.22;647271;216;31510;-74
2022/07/07 08:57:27;;;;;;;0.60;0.60;;;19.40;1.40;;;21.36;78.38;95859.75;646434;216;31514;-75
2022/07/07 09:00:11;;;;;;;1.80;1.00;;;19.90;1.40;;;20.35;79.12;95872.94;646504;212;31537;-74
2022/07/07 09:05:27;;;;;;;1.30;0.70;;;18.70;1.40;;;20.23;77.24;95874.92;619974;226;32022;-74
2022/07/07 09:08:19;;;;;;;0.85;0.70;;;18.80;1.40;;;20.54;80.75;95863.37;646990;212;31535;-74
2022/07/07 09:13:35;;;;;;;1.90;0.90;;;18.60;1.40;;;20.07;82.09;95874.66;646266;212;31618;-75
2022/07/07 09:16:17;;;;;;;1.10;0.90;;;18.30;1.40;;;20.31;80.83;95876.78;646263;212;31491;-74
2022/07/07 09:18:58;;;;;;;0.90;0.80;;;18.30;1.40;;;19.56;86.94;95879.83;647648;216;31762;-75
2022/07/07 09:21:40;;;;;;;1.73;1.00;;;18.00;1.40;;;19.28;88.24;95884.58;619999;222;31900;-75
2022/07/07 09:24:22;;;;;;;1.10;1.00;;;17.90;1.40;;;19.12;85.93;95887.64;647315;212;31629;-75
2022/07/07 09:27:04;;;;;;;1.65;0.88;;;17.70;1.40;;;18.98;90.04;95885.16;646450;216;31631;-75
2022/07/07 09:29:45;;;;;;;1.20;0.70;;;17.70;1.40;;;19.39;90.55;95891.50;617213;226;31942;-74
2022/07/07 09:32:27;;;;;;;1.40;0.80;;;17.90;1.40;;;19.20;91.48;95890.72;647341;216;31542;-75
2022/07/07 09:38:38;;;;;;;0.93;0.60;;;17.40;1.40;;;18.59;96.92;95883.55;646986;216;31527;-74
2022/07/07 09:42:28;;;;;;;1.10;0.90;;;17.30;1.40;;;18.81;91.66;95881.89;647146;216;42096;-75
2022/07/07 09:45:10;;;;;;;1.30;1.08;;;17.80;1.40;;;18.97;93.48;95883.59;645979;212;31494;-75
2022/07/07 09:47:51;;;;;;;1.70;0.90;;;17.70;1.40;;;19.65;93.00;95889.48;645349;216;31487;-74
2022/07/07 09:50:33;;;;;;;1.80;0.90;;;18.30;1.40;;;20.10;88.80;95895.80;646385;216;32116;-75
2022/07/07 09:53:15;;;;;;;1.70;1.00;;;18.70;1.40;;;20.32;84.55;95894.34;647439;216;31920;-75
2022/07/07 09:56:01;;;;;;;0.80;0.77;;;18.80;1.40;;;20.25;84.60;95899.05;647123;216;43103;-75
2022/07/07 09:58:43;;;;;;;1.23;0.83;;;18.50;1.40;;;19.69;85.75;95911.41;646517;212;31637;-75
2022/07/07 10:01:26;;;;;;;1.00;0.90;;;18.10;1.40;;;19.06;93.37;95912.27;645759;216;42247;-75
2022/07/07 10:04:09;;;;;;;1.70;0.73;;;17.70;1.40;;;18.90;96.01;95910.31;646837;212;42666;-75
2022/07/07 10:06:50;;;;;;;0.93;0.83;;;17.50;1.40;;;18.67;100.00;95907.48;646312;216;31542;-74
2022/07/07 10:09:35;;;;;;;2.10;1.00;;;17.40;1.40;;;18.54;100.00;95904.43;646672;216;32140;-74
2022/07/07 10:12:17;;;;;;;2.58;1.15;;;17.30;1.40;;;18.23;100.00;95902.45;646911;216;31860;-75
2022/07/07 10:15:01;;;;;;;2.08;0.85;;;17.10;1.40;;;18.14;100.00;95908.26;646518;216;34078;-74
2022/07/07 10:17:42;;;;;;;1.10;1.00;;;17.10;1.40;;;18.05;100.00;95908.09;646175;212;31496;-74
2022/07/07 10:20:24;;;;;;;2.00;0.80;;;17.20;1.40;;;18.44;100.00;95906.70;647552;216;31527;-74
2022/07/07 10:23:06;;;;;;;1.20;1.10;;;17.60;1.40;;;18.77;100.00;95913.20;647737;212;31887;-73
2022/07/07 10:26:03;;;;;;;0.70;0.60;;;17.70;1.40;;;19.16;100.00;95909.88;646369;216;31605;-74
2022/07/07 10:28:52;;;;;;;1.05;0.80;;;17.90;1.40;;;19.43;100.00;95910.00;646495;216;31503;-74
2022/07/07 10:31:37;;;;;;;2.42;1.20;;;18.20;1.40;;;19.42;100.00;95898.48;646740;216;31534;-74
2022/07/07 10:35:53;;;;;;;0.80;0.80;;;18.10;1.40;;;19.66;97.56;95910.58;647284;212;31591;-74
2022/07/07 10:38:34;;;;;;;1.00;0.80;;;18.40;1.40;;;19.95;95.97;95916.05;646420;216;42513;-73
2022/07/07 10:41:15;;;;;;;2.30;1.10;;;18.90;1.40;;;20.66;96.01;95907.78;647798;216;31829;-75
2022/07/07 10:46:35;;;;;;;1.03;0.80;;;20.10;1.40;;;21.42;85.33;95884.59;647263;216;31794;-74
2022/07/07 10:49:20;;;;;;;3.17;1.20;;;19.80;1.40;;;20.99;86.93;95882.39;645975;216;42098;-74
2022/07/07 10:52:02;;;;;;;0.65;0.65;;;19.60;1.40;;;20.53;86.21;95890.52;647651;216;31526;-75
2022/07/07 10:54:50;;;;;;;1.90;0.70;;;19.30;1.40;;;20.92;86.95;95882.37;646797;212;32012;-74
2022/07/07 10:57:40;;;;;;;1.35;0.98;;;19.80;1.40;;;20.88;81.68;95879.89;646870;216;31554;-75
2022/07/07 11:00:27;;;;;;;1.98;0.70;;;19.20;1.40;;;20.71;82.08;95882.36;646374;216;31606;-74
2022/07/07 11:03:10;;;;;;;0.77;0.75;;;19.10;1.40;;;20.57;85.39;95887.83;645468;216;31627;-75
2022/07/07 11:05:52;;;;;;;1.10;1.00;;;19.00;1.40;;;20.02;87.25;95881.55;647291;215;32087;-74
2022/07/07 11:08:36;;;;;;;1.15;0.75;;;18.60;1.40;;;20.57;88.65;95878.25;618694;226;31872;-75
2022/07/07 11:11:18;;;;;;;1.23;1.00;;;19.20;1.40;;;20.84;86.46;95881.80;647554;216;31542;-75
2022/07/07 11:14:04;;;;;;;1.27;0.90;;;19.30;1.40;;;20.23;88.44;95888.47;646417;216;31721;-75
2022/07/07 11:16:46;;;;;;;1.45;1.12;;;18.90;1.40;;;20.31;92.22;95888.84;645956;216;31506;-75
2022/07/07 11:19:27;;;;;;;1.10;0.80;;;18.90;1.40;;;19.92;90.88;95885.00;644934;216;31490;-75
2022/07/07 11:22:18;;;;;;;2.37;1.02;;;18.60;1.40;;;20.07;93.25;95886.93;646087;216;31505;-75
2022/07/07 11:25:01;;;;;;;1.10;0.95;;;18.70;1.40;;;19.61;95.34;95889.51;619042;225;31846;-75
2022/07/07 11:27:41;;;;;;;0.93;0.82;;;18.40;1.40;;;20.04;96.00;95882.17;646159;216;31516;-74
2022/07/07 11:30:24;;;;;;;2.40;0.80;;;18.80;1.40;;;20.68;91.12;95875.58;646399;216;32114;-75
2022/07/07 11:35:51;;;;;;;1.00;0.80;;;19.30;1.40;;;20.29;92.26;95878.22;646053;216;42171;-75
2022/07/07 11:38:33;;;;;;;1.20;1.10;;;18.90;1.40;;;20.22;95.74;95875.88;619413;226;31872;-76
2022/07/07 11:41:15;;;;;;;1.58;0.80;;;18.80;1.40;;;20.06;95.17;95878.95;646806;212;31911;-75
2022/07/07 11:43:56;;;;;;;0.77;0.70;;;18.70;1.40;;;19.94;97.20;95881.49;646666;213;31582;-75
2022/07/07 11:47:09;;;;;;;0.80;0.60;;;18.80;1.40;;;20.60;93.98;95877.83;648389;216;31546;-74
2022/07/07 11:49:52;;;;;;;1.65;1.02;;;19.00;1.40;;;20.70;92.05;95884.55;645404;216;31492;-75
2022/07/07 11:52:34;;;;;;;2.20;1.00;;;19.10;1.40;;;20.49;90.32;95883.50;643632;216;32253;-74
2022/07/07 11:55:18;;;;;;;2.00;0.70;;;18.90;1.40;;;20.34;89.98;95885.00;647209;212;32035;-75
2022/07/07 11:57:59;;;;;;;1.10;1.00;;;18.90;1.40;;;20.63;89.75;95882.09;647553;212;31631;-75
2022/07/07 12:00:41;;;;;;;0.73;0.73;;;19.10;1.40;;;20.29;89.42;95885.45;646077;216;31535;-76
2022/07/07 12:03:28;;;;;;;1.40;0.80;;;18.80;1.40;;;20.27;92.33;95889.83;646748;216;31485;-75
2022/07/07 12:06:12;;;;;;;2.83;1.05;;;18.70;1.40;;;19.87;92.72;95891.84;619167;222;32675;-74
2022/07/07 12:08:54;;;;;;;2.70;1.12;;;18.40;1.40;;;19.57;94.34;95892.42;646761;216;31760;-75
2022/07/07 12:11:38;;;;;;;3.75;0.98;;;18.20;1.40;;;19.51;95.79;95892.63;618801;225;42569;-75